x

Boston 16 Nm East Of Boston, Ma (44013) Wave Buoy

5:50 - Wed 4th Mar 2015 All times are EST. -5 hours from GMT.

  • Sig Wave height 3.3ft
  • Swell Direction
  • Peak Period 5s
  • Average Period 4s
  • Wind
    11mph, 13mph gusts
  • Sea Temp 37°f
  • Aire Temp 37°f
  • Sea Pressure 1005mb
  • Boston 16 Nm East Of Boston, Ma
  • Boston 16 Nm East Of Boston, Ma

More Historic Weather Station data

Upgrade to MSW Pro to gain access to the past 30 days of data for over 8000 Wavebouys and Weather Stations around the globe.

Join Pro

Comparision Forecast

View Surf forecast
   
mié 03/04 5:50 3.5ft 5s 4s 11 13 mph 1005mb 37f 37f
4:50 3.5ft 5s 4s 13 16 mph 1004.3mb 37f 38f
3:50 3.5ft 5s 4s 16 18 mph 1004.2mb 37f 39f
2:50  -   -   -  9 11 mph 1004.7mb 37f 37f
1:50 3.5ft 5s 4s 13 18 mph 1005.8mb 36f 37f
12:50 3.5ft 5s 4s 16 18 mph 1007.6mb 36f 35f
mar 03/03 11:50 4.5ft 5s 4s 18 25 mph 1010mb 36f 32f
10:50 4ft 5s 4s 25 29 mph 1012mb 36f 31f
9:50 3.5ft 5s 4s 25 31 mph 1014.8mb 36f 29f
8:50 3ft 4s 4s 22 27 mph 1017.1mb 36f 28f
7:50 2.5ft 4s 4s 18 22 mph 1020mb 36f 27f
6:50 2.5ft 4s 3s 22 27 mph 1021mb 36f 29f
5:50 2ft 3s 3s 18 22 mph 1022.2mb 37f 30f
4:50 1.6ft 3s 3s 18 20 mph 1023.1mb 37f 29f
3:50 1ft 9s 5s 16 20 mph 1024.4mb 37f 28f
2:50 1.3ft 10s 5s 7 11 mph 1025.8mb 37f 28f
1:50 1.3ft 11s 5s 2 7 mph 1026.7mb 37f 27f
12:50 1.3ft 10s 4s 4
mph
1028mb 37f 26f
11:50 1.6ft 3s 3s 9 13 mph 1028.9mb 37f 25f
10:50 2ft 3s 4s 11 16 mph 1029.5mb 37f 24f
9:50 2.5ft 3s 4s 16 18 mph 1029.3mb 37f 24f
8:50 2.5ft 3s 4s 16 20 mph 1029.7mb 36f 23f
7:50 3ft 4s 4s 20 27 mph 1029mb 36f 24f
6:50 3.5ft 4s 4s 22 27 mph 1028.4mb 36f 24f
5:50 3.5ft 4s 4s 25 29 mph 1028.1mb 36f 24f
4:50 3.5ft 4s 4s 27 34 mph 1027.9mb 37f 24f
3:50 3.5ft 4s 4s 25 29 mph 1027mb 37f 25f
2:50 3.5ft 4s 4s 25 29 mph 1026.1mb 37f 25f
1:50 3.5ft 4s 4s 25 29 mph 1026mb 37f 26f
12:50 3.5ft 4s 4s 20 27 mph 1025.2mb 37f 27f
lun 03/02 11:50 4ft 4s 4s 25 34 mph 1024mb 37f 28f
10:50 3.5ft 4s 4s 27 31 mph 1023.1mb 37f 29f
9:50 3ft 4s 4s 20 25 mph 1021.6mb 37f 30f
8:50 3.5ft 4s 4s 25 29 mph 1020.7mb 37f 31f
7:50 3.5ft 4s 4s 25 29 mph 1020mb 37f 31f
6:50 3.5ft 4s 4s 25 31 mph 1019mb 37f 32f
5:50 3.5ft 4s 4s 27 31 mph 1017.2mb 37f 33f
4:50 3.5ft 4s 4s 20 25 mph 1016.2mb 37f 34f
3:50 3.5ft 4s 4s 22 27 mph 1015.7mb 37f 34f
2:50 3ft 4s 4s 27 31 mph 1015mb 37f 34f
1:50 3ft 4s 4s 25 27 mph 1014.4mb 37f 34f
12:50 3.5ft 4s 4s 25 29 mph 1013.9mb 37f 34f
11:50 3ft 4s 4s 27 31 mph 1014.1mb 37f 33f
10:50 2.5ft 4s 3s 25 29 mph 1013.5mb 37f 33f
9:50 1.6ft 3s 3s 22 25 mph 1013.4mb 37f 32f
8:50 1.3ft 3s 3s 18 22 mph 1013.9mb 37f 31f
7:50 1.3ft 3s 3s 16 18 mph 1013.3mb 37f 30f
6:50 1.3ft 9s 3s 11 13 mph 1013.9mb 37f 29f
5:50 1.6ft 3s 3s 13 16 mph 1014.3mb 37f 29f
4:50 1.6ft 3s 3s 13 18 mph 1014.7mb 37f 29f
3:50 1.6ft 3s 3s 16 18 mph 1015mb 37f 29f
2:50 1.3ft 8s 3s 16 18 mph 1015.7mb 37f 29f
1:50 1.3ft 4s 4s 13 18 mph 1017mb 37f 29f
12:50 1.6ft 4s 4s 11 16 mph 1018.6mb 37f 29f
dom 03/01 11:50 2ft 4s 4s 11 13 mph 1020.1mb 37f 29f
10:50 2ft 4s 4s 13 16 mph 1021.3mb 37f 29f
9:50 2ft 3s 3s 13 16 mph 1022.8mb 37f 29f
8:50 2ft 4s 3s 16 18 mph 1024.2mb 37f 28f
7:50 2ft 3s 3s 16 20 mph 1026mb 37f 28f
6:50 1.6ft 3s 3s 16 20 mph 1027.1mb 37f 28f
5:50 1.6ft 3s 3s 13 18 mph 1028.6mb 37f 27f
4:50 1.6ft 4s 3s 11 16 mph 1030mb 37f 27f
3:50 2ft 3s 3s 16 20 mph 1031.5mb 37f 27f
2:50 1.6ft 3s 3s 20 25 mph 1032.8mb 37f 28f
1:50 1.3ft 8s 4s 16 22 mph 1033.6mb 37f 29f
12:50 1ft 9s 7s 11 16 mph 1034.3mb 37f 28f
11:50 1ft 8s 7s 7 9 mph 1035.7mb 37f 27f
10:50 1ft 9s 7s 7 11 mph 1037mb 37f 26f
9:50 1ft 9s 6s 7 9 mph 1037.6mb 37f 24f
8:50 1ft 10s 5s 4 7 mph 1038.3mb 37f 23f
7:50 1.3ft 8s 7s 9 11 mph 1039.4mb 37f 24f
6:50 1ft 8s 6s 4 7 mph 1038.9mb 37f 25f
5:50 1.3ft 10s 6s 4 7 mph 1038.6mb 37f 24f
4:50 1.3ft 8s 5s 7
mph
1038.9mb 37f 25f
3:50 1.3ft 10s 5s 9 11 mph 1039.2mb 37f 25f
2:50 1.6ft 10s 4s 9 11 mph 1039.2mb 37f 26f
1:50 1.6ft 8s 4s 11 13 mph 1039.7mb 37f 26f
12:50 2ft 10s 4s 13 16 mph 1039.9mb 37f 27f
sáb 02/28 11:50 1.6ft 10s 4s 13 18 mph 1039.7mb 37f 27f
10:50 1.6ft 9s 4s 13 18 mph 1039.7mb 37f 28f
9:50 1.6ft 10s 4s 16 18 mph 1039.9mb 37f 28f
8:50 1.6ft 10s 7s 13 16 mph 1039.7mb 37f 29f
7:50 1.6ft 9s 7s 9 11 mph 1039.6mb 37f 29f
6:50 1.6ft 9s 7s 9 11 mph 1039.6mb 37f 28f
5:50 2ft 10s 7s 7 11 mph 1039.3mb 37f 28f
4:50 2ft 9s 7s 9 11 mph 1039.1mb 37f 30f
3:50 2ft 9s 6s 9 11 mph 1039.3mb 37f 28f
2:50 2.5ft 8s 6s 11 13 mph 1039.5mb 37f 26f
1:50 2ft 9s 6s 13 18 mph 1040mb 37f 25f
12:50 2ft 9s 6s 11 13 mph 1040.8mb 37f 22f